Nashotah, WI

07:55 AM CDT del 30 Marzo 2015 (GMT -0500)
West Bend Municipal | | Change Station
CLOSE
Current Station
Aeroporto
Location: West Bend,
Altitudine: 886 ft
Stazioni meteo nelle vicinanze

Alt. 886 ft 43.42 °N, 88.13 °W | Updated 25 minutes ago

Sereno
Sereno
36 °F
Sembra 29 °F
N
9
Vento Variabile Vento da Ovest

Oggi
Massima -- | Minima -- °F
--% Possibilità di precip.
Ieri
Massima -- | Minima -- °F
Precip. -- in
6:39 AM 7:17 PM
Gobba a ponente, 79% visible
Pressione 29.95 in
Visibilità 10.0 miglia
Nuvole Sereno
Raffreddamento del vento 29 °F
Punto di rugiada 28 °F
Umidità 75%
Piovosità 0.00 in
Spessore del manto nevoso Non disponibile.
Raggi UV 0 fuori da 12
Polline 3.50 fuori da 12
Qualità dell'aria Non disponibile.
Flu Activity Non disponibile.
METAR KETB 301230Z AUTO 26008KT 10SM CLR 02/M02 A2995 RMK AO2

More Conditions Fewer Conditions

Pressione 29.95 in
Visibilità 10.0 miglia
Nuvole Sereno
Raffreddamento del vento 29 °F
Punto di rugiada 28 °F
Umidità 75%
Piovosità 0.00 in
Spessore del manto nevoso Non disponibile.
Raggi UV 0 fuori da 12
Polline 3.50 fuori da 12
Qualità dell'aria Non disponibile.
Flu Activity Non disponibile.
METAR KETB 301230Z AUTO 26008KT 10SM CLR 02/M02 A2995 RMK AO2

More Conditions Fewer Conditions

10-Day Weather Forecast

Almanac

Astronomia

Mar. 30, 2015 Alba Tramonto
Ora attuale
Crepuscolo civile
Crepuscolo nautico
Crepuscolo astronomico
Luna
Estensione della luce visibile
Lunghezza del giorno
Tomorrow will be .
, % of the Moon is Illuminated

Gli estremi di oggi

State Highs State Lows

Community

WunderPhotos

Upload Photos

1,809,464 foto caricate!

WunderBlogs® & News

Nearby

Qualità dell'aria

  Qualità dell'aria Indice AQ Inquinante
Not available.

Profondità neve

Stazione Profondità Altitudine

Attività sismica

Città  Distanza Mag. Data & Ora
Minimo Magnitudo Mostrato è 2.5.

Temperature delle acque costiere

Località Temperatura

Stations

Stazioni meteo nelle vicinanze

Ubicazione della stazione Temp. Raffreddamento del vento Punto di rugiada Umidità Vento Precip. Alt. Aggiornato Tipo